High Wycombe, United Kingdom
Current Conditions -  °F | °C
As of 5:50 AM on Sunday 23 Nov 2014 (Local Time) from EGUB Reporting Station
Broken Clouds Broken Clouds  
Wind Chill: 45°   Ceiling: 4400
Heat Index: 48°   Visibility: 4mi
Dew Point: 46°   Wind: 7mph
Humidity: 93%   Direction: 320°NW
Pressure: 30"   Gusts: NA
Location:  51.63°N, 0.75°W
Report Text: EGUB 230550Z AUTO 32006KT 6000 // SCT007/// BKN044/// 09/08 Q1016
Loading
Personal Weather Stations






























Interactive Weather Map New forecast layout! Learn more

10-Day Weather Forecast

Advertisements
Track Severe Weather on mobile